Time;durP1;ratioP1;P1;durP2;ratioP2;P2;SDS_P1;SDS_P2;PMS_P1;PMS_P2;Temp;Humidity;BMP_temperature;BMP_pressure;BME280_temperature;BME280_humidity;BME280_pressure;Samples;Min_cycle;Max_cycle;Signal;HPM_P1;HPM_P2
2022/08/02 00:01:43;;;;;;;6.03;4.28;;;11.80;99.90;;;;;;5027617;28;20071;-86
2022/08/02 00:04:09;;;;;;;8.65;4.78;;;11.70;99.90;;;;;;5074175;28;20360;-86
2022/08/02 00:06:35;;;;;;;7.00;4.28;;;11.80;99.90;;;;;;5026929;28;20041;-87
2022/08/02 00:09:01;;;;;;;9.30;4.90;;;11.70;99.90;;;;;;5061293;28;20502;-86
2022/08/02 00:11:27;;;;;;;7.65;4.50;;;11.70;99.90;;;;;;5072286;28;20412;-85
2022/08/02 00:13:52;;;;;;;9.88;4.47;;;11.70;99.90;;;;;;5029460;28;20047;-87
2022/08/02 00:16:18;;;;;;;9.30;4.88;;;11.70;99.90;;;;;;5058136;28;20033;-87
2022/08/02 00:18:44;;;;;;;8.65;4.22;;;11.60;99.90;;;;;;5030343;28;20060;-87
2022/08/02 00:21:09;;;;;;;8.70;4.45;;;11.60;99.90;;;;;;5055986;28;20037;-86
2022/08/02 00:23:35;;;;;;;10.45;4.22;;;11.50;99.90;;;;;;5057213;28;20040;-86
2022/08/02 00:26:01;;;;;;;6.25;4.00;;;11.60;99.90;;;;;;5025151;28;20044;-86
2022/08/02 00:28:27;;;;;;;7.65;4.30;;;11.60;99.90;;;;;;5061584;28;20080;-87
2022/08/02 00:30:52;;;;;;;7.70;4.07;;;11.50;99.90;;;;;;5045147;28;20242;-87
2022/08/02 00:33:18;;;;;;;8.10;4.82;;;11.50;99.90;;;;;;5057810;28;20484;-87
2022/08/02 00:35:46;;;;;;;8.25;4.10;;;11.50;99.90;;;;;;5044044;28;20049;-88
2022/08/02 00:38:12;;;;;;;9.00;4.90;;;11.50;99.90;;;;;;5029848;28;20040;-87
2022/08/02 00:40:38;;;;;;;7.72;3.88;;;11.50;99.90;;;;;;5030227;28;20111;-88
2022/08/02 00:43:09;;;;;;;9.52;4.15;;;11.50;99.90;;;;;;5044734;28;20575;-88
2022/08/02 00:45:40;;;;;;;6.90;4.07;;;11.50;99.90;;;;;;5029186;28;20132;-87
2022/08/02 00:48:07;;;;;;;12.38;4.28;;;11.40;99.90;;;;;;5027030;28;20068;-86
2022/08/02 00:50:34;;;;;;;14.23;5.00;;;11.40;99.90;;;;;;5025275;28;20115;-86
2022/08/02 00:53:00;;;;;;;7.68;4.47;;;11.30;99.90;;;;;;5067736;28;20029;-86
2022/08/02 00:55:27;;;;;;;7.03;3.83;;;11.30;99.90;;;;;;5009502;28;20072;-87
2022/08/02 00:57:53;;;;;;;6.10;3.83;;;11.20;99.90;;;;;;5046284;28;20030;-86
2022/08/02 01:00:19;;;;;;;9.63;4.60;;;11.20;99.90;;;;;;5026602;28;20047;-87
2022/08/02 01:02:45;;;;;;;8.38;4.57;;;11.20;99.90;;;;;;5056407;28;20131;-87
2022/08/02 01:05:11;;;;;;;12.35;4.90;;;11.20;99.90;;;;;;5009375;28;20041;-87
2022/08/02 01:07:37;;;;;;;10.05;5.43;;;11.20;99.90;;;;;;5043344;28;20110;-88
2022/08/02 01:10:07;;;;;;;11.13;4.30;;;11.20;99.90;;;;;;5030467;28;20334;-82
2022/08/02 01:12:33;;;;;;;11.70;4.40;;;11.10;99.90;;;;;;5009545;28;20495;-83
2022/08/02 01:15:03;;;;;;;11.00;4.90;;;11.10;99.90;;;;;;5060757;28;20055;-82
2022/08/02 01:17:41;;;;;;;8.05;4.55;;;11.10;99.90;;;;;;5011256;28;20068;-82
2022/08/02 01:20:31;;;;;;;7.35;5.30;;;11.00;99.90;;;;;;5041822;28;20045;-83
2022/08/02 01:23:18;;;;;;;6.18;4.50;;;11.00;99.90;;;;;;5060993;28;20064;-82
2022/08/02 01:25:52;;;;;;;10.65;5.72;;;11.00;99.90;;;;;;5054646;28;20384;-82
2022/08/02 01:28:31;;;;;;;7.93;4.80;;;10.90;99.90;;;;;;5059730;28;20076;-83
2022/08/02 01:31:07;;;;;;;8.00;4.68;;;10.90;99.90;;;;;;5036245;28;20025;-83
2022/08/02 01:33:43;;;;;;;6.82;4.80;;;10.90;99.90;;;;;;5055746;28;20040;-83
2022/08/02 01:36:12;;;;;;;9.80;5.30;;;11.00;99.90;;;;;;5039321;28;20049;-83
2022/08/02 01:38:50;;;;;;;12.55;5.20;;;10.90;99.90;;;;;;5008469;28;20467;-83
2022/08/02 01:41:20;;;;;;;13.20;5.25;;;10.90;99.90;;;;;;5051286;28;21243;-83
2022/08/02 01:43:48;;;;;;;10.57;4.70;;;10.90;99.90;;;;;;5041212;28;20044;-83
2022/08/02 01:46:15;;;;;;;12.05;4.75;;;10.90;99.90;;;;;;5039862;28;20106;-82
2022/08/02 01:48:44;;;;;;;11.55;5.00;;;10.90;99.90;;;;;;5067120;28;20059;-83
2022/08/02 01:51:15;;;;;;;7.35;4.72;;;10.90;99.90;;;;;;5040943;28;20040;-82
2022/08/02 01:53:44;;;;;;;12.13;4.85;;;10.90;99.90;;;;;;5037470;28;20044;-82
2022/08/02 01:56:11;;;;;;;11.43;4.50;;;10.90;99.90;;;;;;5041454;28;20052;-82
2022/08/02 01:58:39;;;;;;;8.70;4.40;;;10.80;99.90;;;;;;5072574;28;20233;-83
2022/08/02 02:01:08;;;;;;;12.38;5.05;;;10.70;99.90;;;;;;5040149;28;20048;-83
2022/08/02 02:03:35;;;;;;;8.98;4.55;;;10.70;99.90;;;;;;5070354;28;20047;-83
2022/08/02 02:06:04;;;;;;;8.68;4.97;;;10.70;99.90;;;;;;5040258;28;20041;-83
2022/08/02 02:08:35;;;;;;;11.15;5.03;;;10.60;1.00;;;;;;5051965;28;20068;-83
2022/08/02 02:11:02;;;;;;;12.60;5.25;;;10.70;1.00;;;;;;5050302;28;20083;-83
2022/08/02 02:13:29;;;;;;;8.50;4.60;;;10.70;1.00;;;;;;5052775;28;20053;-82
2022/08/02 02:15:55;;;;;;;7.78;4.30;;;10.70;1.00;;;;;;5050007;28;20692;-87
2022/08/02 02:18:24;;;;;;;7.95;4.95;;;10.70;1.00;;;;;;5042239;28;20028;-88
2022/08/02 02:20:50;;;;;;;11.02;4.95;;;10.80;1.00;;;;;;5038076;28;20048;-87
2022/08/02 02:23:17;;;;;;;12.68;4.78;;;10.80;99.90;;;;;;5041650;28;20091;-87
2022/08/02 02:25:43;;;;;;;10.38;4.75;;;10.90;1.00;;;;;;5036989;28;20124;-87
2022/08/02 02:28:29;;;;;;;12.30;5.05;;;10.90;99.90;;;;;;5054855;28;20120;-86
2022/08/02 02:31:18;;;;;;;10.02;5.25;;;11.00;1.00;;;;;;5040802;28;20198;-86
2022/08/02 02:34:02;;;;;;;9.05;4.75;;;11.00;99.90;;;;;;5022458;28;20123;-87
2022/08/02 02:36:29;;;;;;;9.75;5.35;;;11.00;99.90;;;;;;5052553;28;20473;-87
2022/08/02 02:39:00;;;;;;;12.35;5.13;;;11.10;99.90;;;;;;5021260;28;20041;-87
2022/08/02 02:41:26;;;;;;;13.05;5.45;;;11.10;99.90;;;;;;5039073;28;20039;-85
2022/08/02 02:43:59;;;;;;;13.82;5.50;;;11.10;1.00;;;;;;5021770;28;20364;-88
2022/08/02 02:46:28;;;;;;;11.95;5.10;;;11.00;99.90;;;;;;5040658;28;20155;-88
2022/08/02 02:48:54;;;;;;;9.93;5.05;;;11.10;99.90;;;;;;5068689;28;20044;-88
2022/08/02 02:51:21;;;;;;;12.75;5.18;;;11.10;99.90;;;;;;5034720;28;20102;-87
2022/08/02 02:53:51;;;;;;;10.80;5.10;;;11.10;1.00;;;;;;5022483;28;20032;-87
2022/08/02 02:56:18;;;;;;;9.15;4.82;;;11.10;99.90;;;;;;5038481;28;20056;-87
2022/08/02 02:58:45;;;;;;;13.75;5.13;;;11.10;1.00;;;;;;5053654;28;20308;-88
2022/08/02 03:01:28;;;;;;;9.98;4.95;;;11.10;1.00;;;;;;5037342;28;20125;-87
2022/08/02 03:04:05;;;;;;;11.40;5.30;;;11.20;1.00;;;;;;5019626;28;20520;-86
2022/08/02 03:06:31;;;;;;;9.50;4.80;;;11.20;99.90;;;;;;5052521;28;20131;-87
2022/08/02 03:08:58;;;;;;;10.50;4.97;;;11.20;99.90;;;;;;5069732;28;20036;-86
2022/08/02 03:11:28;;;;;;;12.13;5.30;;;11.20;1.00;;;;;;5018492;28;20440;-87
2022/08/02 03:14:03;;;;;;;10.93;4.40;;;11.20;1.00;;;;;;5038573;28;20036;-87
2022/08/02 03:16:29;;;;;;;7.68;4.70;;;11.20;99.90;;;;;;5052217;28;20045;-87
2022/08/02 03:18:57;;;;;;;11.35;4.80;;;11.20;1.00;;;;;;5022574;28;20051;-86
2022/08/02 03:21:23;;;;;;;12.45;4.88;;;11.20;99.90;;;;;;5039661;28;20037;-86
2022/08/02 03:23:50;;;;;;;9.68;4.97;;;11.30;99.90;;;;;;5024039;28;20037;-86
2022/08/02 03:26:15;;;;;;;8.77;4.60;;;11.30;99.90;;;;;;5056376;28;20048;-88
2022/08/02 03:28:42;;;;;;;11.10;4.85;;;11.30;99.90;;;;;;5045113;28;20036;-86
2022/08/02 03:31:08;;;;;;;7.72;4.28;;;11.20;99.90;;;;;;5043746;28;20033;-86
2022/08/02 03:33:34;;;;;;;11.15;5.40;;;11.30;99.90;;;;;;5058622;28;20052;-86
2022/08/02 03:36:09;;;;;;;8.80;4.75;;;11.30;99.90;;;;;;5034006;28;20190;-86
2022/08/02 03:38:35;;;;;;;;;;;11.30;99.90;;;;;;5041409;28;20037;-87
2022/08/02 03:41:02;;;;;;;10.68;4.28;;;11.30;99.90;;;;;;5025309;28;19917;-88
2022/08/02 03:43:29;;;;;;;8.65;4.25;;;11.40;99.90;;;;;;5029238;28;20048;-87
2022/08/02 03:45:56;;;;;;;9.35;4.63;;;11.30;99.90;;;;;;5045552;28;20528;-86
2022/08/02 03:48:22;;;;;;;13.57;5.10;;;11.30;99.90;;;;;;5046814;28;20106;-88
2022/08/02 03:50:49;;;;;;;10.45;5.22;;;11.40;1.00;;;;;;5057136;28;20037;-87
2022/08/02 03:53:16;;;;;;;11.57;5.28;;;11.40;99.90;;;;;;5045435;28;20033;-89
2022/08/02 03:55:42;;;;;;;13.70;5.47;;;11.40;1.00;;;;;;5047809;28;20109;-88
2022/08/02 03:58:08;;;;;;;12.73;5.28;;;11.40;99.90;;;;;;5045981;28;20064;-87
2022/08/02 04:00:34;;;;;;;9.07;5.18;;;11.40;99.90;;;;;;5055929;28;20040;-88
2022/08/02 04:03:00;;;;;;;13.07;5.40;;;11.50;99.90;;;;;;5044080;28;20029;-87
2022/08/02 04:05:26;;;;;;;15.88;5.88;;;11.50;99.90;;;;;;5061958;28;20107;-87
2022/08/02 04:07:51;;;;;;;12.23;5.53;;;11.50;99.90;;;;;;5029624;28;20204;-87
2022/08/02 04:10:20;;;;;;;10.48;6.07;;;11.50;99.90;;;;;;5075264;28;20536;-87
2022/08/02 04:12:45;;;;;;;12.98;6.13;;;11.50;99.90;;;;;;5048305;28;20032;-87
2022/08/02 04:15:14;;;;;;;13.45;5.68;;;11.60;99.90;;;;;;5028835;28;20475;-86
2022/08/02 04:17:46;;;;;;;12.70;5.82;;;11.70;99.90;;;;;;5048573;28;20041;-86
2022/08/02 04:20:20;;;;;;;10.90;5.95;;;11.70;1.00;;;;;;5059901;28;20040;-87
2022/08/02 04:23:03;;;;;;;12.98;5.85;;;11.80;99.90;;;;;;5028685;28;20040;-87
2022/08/02 04:25:31;;;;;;;11.60;6.20;;;11.80;1.00;;;;;;5067716;28;20032;-87
2022/08/02 04:27:59;;;;;;;11.27;6.07;;;11.90;1.00;;;;;;5060765;28;20035;-86
2022/08/02 04:30:25;;;;;;;13.63;7.00;;;11.90;1.00;;;;;;5045205;28;20154;-87
2022/08/02 04:32:51;;;;;;;15.25;6.55;;;11.90;1.00;;;;;;5032114;28;20061;-87
2022/08/02 04:35:17;;;;;;;13.98;7.43;;;12.00;1.00;;;;;;5030245;28;20385;-88
2022/08/02 04:37:43;;;;;;;10.20;6.35;;;12.10;1.00;;;;;;5042938;28;20413;-88
2022/08/02 04:40:11;;;;;;;10.13;6.32;;;12.10;1.00;;;;;;5058972;28;20032;-88
2022/08/02 04:42:37;;;;;;;17.90;6.82;;;12.20;1.00;;;;;;5042322;28;20043;-87
2022/08/02 04:45:04;;;;;;;14.93;6.63;;;12.20;99.90;;;;;;5041232;28;20496;-86
2022/08/02 04:47:30;;;;;;;15.05;6.43;;;12.30;99.90;;;;;;5075889;28;20056;-86
2022/08/02 04:49:56;;;;;;;15.98;6.70;;;12.30;99.90;;;;;;5059894;28;20035;-87
2022/08/02 04:52:22;;;;;;;17.02;6.80;;;12.40;1.00;;;;;;5052905;28;20036;-87
2022/08/02 04:54:47;;;;;;;11.32;5.85;;;12.50;99.90;;;;;;5064400;28;20231;-87
2022/08/02 04:59:57;;;;;;;10.43;6.38;;;12.60;99.90;;;;;;5074493;28;20048;-86
2022/08/02 05:02:23;;;;;;;12.10;6.45;;;12.80;99.90;;;;;;5060029;28;20037;-88
2022/08/02 05:04:50;;;;;;;12.48;6.57;;;12.80;99.90;;;;;;5056447;28;20075;-87
2022/08/02 05:07:19;;;;;;;11.18;6.30;;;12.90;99.90;;;;;;5056068;28;20131;-88
2022/08/02 05:09:44;;;;;;;9.40;6.45;;;13.00;99.90;;;;;;5044177;28;20054;-86
2022/08/02 05:12:10;;;;;;;14.18;6.65;;;13.20;99.90;;;;;;5026448;28;20040;-87
2022/08/02 05:14:36;;;;;;;10.30;6.40;;;13.30;99.90;;;;;;5045011;28;20047;-88
2022/08/02 05:17:02;;;;;;;12.23;6.35;;;13.30;99.90;;;;;;5033067;28;20492;-86
2022/08/02 05:19:27;;;;;;;11.05;5.97;;;13.40;99.90;;;;;;5047122;28;20029;-88
2022/08/02 05:21:53;;;;;;;9.82;6.30;;;13.50;99.90;;;;;;5057510;28;20166;-86
2022/08/02 05:24:19;;;;;;;13.85;5.95;;;13.70;99.90;;;;;;5046796;28;20036;-86
2022/08/02 05:26:44;;;;;;;11.40;6.03;;;13.80;99.90;;;;;;5058831;28;20043;-87
2022/08/02 05:29:10;;;;;;;10.93;5.68;;;13.80;99.90;;;;;;5055348;28;20062;-87
2022/08/02 05:31:36;;;;;;;11.95;6.10;;;13.90;99.90;;;;;;5075922;28;20044;-86
2022/08/02 05:34:01;;;;;;;10.07;5.65;;;14.00;99.90;;;;;;5053605;28;20229;-86
2022/08/02 05:36:27;;;;;;;11.40;5.90;;;14.10;99.90;;;;;;5034450;28;20063;-88
2022/08/02 05:38:53;;;;;;;12.23;5.57;;;14.30;99.90;;;;;;5035592;28;20048;-86
2022/08/02 05:41:19;;;;;;;11.00;5.55;;;14.40;99.90;;;;;;5030449;28;20420;-87
2022/08/02 05:43:45;;;;;;;9.05;5.88;;;14.30;99.90;;;;;;5049747;28;20039;-88
2022/08/02 05:46:11;;;;;;;13.98;5.78;;;14.50;95.30;;;;;;5035092;28;20056;-88
2022/08/02 05:48:37;;;;;;;9.13;5.28;;;14.60;66.00;;;;;;5024827;28;20055;-84
2022/08/02 05:51:05;;;;;;;11.82;5.25;;;14.70;74.70;;;;;;5032213;28;20261;-84
2022/08/02 05:54:04;;;;;;;10.05;5.10;;;14.60;63.20;;;;;;5040942;28;20819;-83
2022/08/02 05:56:43;;;;;;;10.98;4.88;;;14.80;37.70;;;;;;5004272;28;20106;-84
2022/08/02 05:59:52;;;;;;;8.38;4.60;;;15.00;1.00;;;;;;5044743;28;20121;-84
2022/08/02 06:02:42;;;;;;;8.75;4.85;;;15.10;1.00;;;;;;5044194;28;20150;-84
2022/08/02 06:05:17;;;;;;;9.43;4.80;;;15.30;1.00;;;;;;5045801;28;20066;-83
2022/08/02 06:07:47;;;;;;;11.57;4.53;;;15.50;1.00;;;;;;5036703;28;20123;-84
2022/08/02 06:10:15;;;;;;;10.95;4.72;;;15.50;1.00;;;;;;5057249;28;20123;-84
2022/08/02 06:12:41;;;;;;;13.30;4.70;;;15.60;1.00;;;;;;5061746;28;20438;-84
2022/08/02 06:15:13;;;;;;;8.45;4.70;;;15.60;1.00;;;;;;5035443;28;20052;-84
2022/08/02 06:17:41;;;;;;;11.68;4.40;;;15.80;99.90;;;;;;5030061;28;20089;-84
2022/08/02 06:20:08;;;;;;;11.48;4.55;;;15.90;99.90;;;;;;5030891;28;20062;-84
2022/08/02 06:22:39;;;;;;;10.38;4.25;;;16.10;99.90;;;;;;5033718;28;20032;-84
2022/08/02 06:25:06;;;;;;;9.18;3.85;;;16.20;99.90;;;;;;5047269;28;20036;-84
2022/08/02 06:27:32;;;;;;;12.18;3.95;;;16.30;99.90;;;;;;5069847;28;20060;-84
2022/08/02 06:30:00;;;;;;;10.52;4.05;;;16.50;99.90;;;;;;5079988;28;20040;-83
2022/08/02 06:32:26;;;;;;;11.63;4.15;;;16.60;99.90;;;;;;5047851;28;20044;-84
2022/08/02 06:34:54;;;;;;;10.18;3.80;;;16.70;99.90;;;;;;5033155;28;20452;-83
2022/08/02 06:37:30;;;;;;;7.88;3.92;;;17.00;99.90;;;;;;5026668;28;20353;-84
2022/08/02 06:40:28;;;;;;;7.72;3.95;;;17.00;99.90;;;;;;5051912;28;20036;-84
2022/08/02 06:43:06;;;;;;;9.82;3.88;;;17.20;99.90;;;;;;5027230;28;20668;-84
2022/08/02 06:45:33;;;;;;;8.68;3.53;;;17.30;99.90;;;;;;5072593;28;20036;-84
2022/08/02 06:47:59;;;;;;;10.55;3.63;;;17.40;99.90;;;;;;5036816;28;20351;-84
2022/08/02 06:50:25;;;;;;;8.48;3.50;;;17.40;99.90;;;;;;5063918;28;20499;-85
2022/08/02 06:52:51;;;;;;;8.27;3.65;;;17.40;99.90;;;;;;5027431;28;20043;-84
2022/08/02 06:55:19;;;;;;;9.23;3.80;;;17.50;99.90;;;;;;5056544;28;20170;-83
2022/08/02 06:57:45;;;;;;;6.97;3.30;;;17.70;99.90;;;;;;5039800;28;20032;-84
2022/08/02 07:00:11;;;;;;;8.20;3.10;;;17.80;99.90;;;;;;5068514;28;20040;-85
2022/08/02 07:02:38;;;;;;;8.90;3.58;;;17.90;90.00;;;;;;5039689;28;20033;-84
2022/08/02 07:05:06;;;;;;;7.38;3.00;;;18.10;11.70;;;;;;5059924;28;20466;-84
2022/08/02 07:07:32;;;;;;;8.35;3.30;;;18.20;1.00;;;;;;5032094;28;20080;-84
2022/08/02 07:09:58;;;;;;;7.90;2.90;;;18.30;1.00;;;;;;5027513;28;20114;-84
2022/08/02 07:12:24;;;;;;;5.85;2.90;;;18.50;1.00;;;;;;5073782;28;20468;-84
2022/08/02 07:14:50;;;;;;;6.30;2.65;;;18.50;1.00;;;;;;5036422;28;20127;-84
2022/08/02 07:17:15;;;;;;;8.45;3.15;;;18.60;1.00;;;;;;5052804;28;20047;-84
2022/08/02 07:19:41;;;;;;;4.68;2.67;;;18.70;1.00;;;;;;5055882;28;20070;-84
2022/08/02 07:22:07;;;;;;;7.50;2.58;;;18.70;1.00;;;;;;5090586;28;20040;-84
2022/08/02 07:24:33;;;;;;;7.53;2.80;;;18.60;1.00;;;;;;5030434;28;20502;-84
2022/08/02 07:26:59;;;;;;;5.68;2.50;;;18.60;1.00;;;;;;5063294;28;20051;-83
2022/08/02 07:29:25;;;;;;;8.18;2.80;;;18.60;1.00;;;;;;5030141;28;20098;-83
2022/08/02 07:31:51;;;;;;;4.20;2.42;;;18.70;99.90;;;;;;5072373;28;20040;-89
2022/08/02 07:34:16;;;;;;;5.43;2.30;;;18.90;99.90;;;;;;5053041;28;20171;-86
2022/08/02 07:36:42;;;;;;;5.90;2.40;;;19.00;99.90;;;;;;5064893;28;20274;-89
2022/08/02 07:39:08;;;;;;;5.47;2.42;;;19.10;99.90;;;;;;5051251;28;20040;-88
2022/08/02 07:41:34;;;;;;;4.70;2.50;;;19.20;99.90;;;;;;5038189;28;20533;-86
2022/08/02 07:44:00;;;;;;;5.97;2.22;;;19.40;99.90;;;;;;5043171;28;20063;-86
2022/08/02 07:46:26;;;;;;;4.35;2.10;;;19.60;99.90;;;;;;5028845;28;20048;-86
2022/08/02 07:48:53;;;;;;;6.32;1.73;;;19.70;99.90;;;;;;5044655;28;20504;-86
2022/08/02 07:51:20;;;;;;;7.50;1.92;;;19.60;99.90;;;;;;5069152;28;20123;-86
2022/08/02 07:53:46;;;;;;;5.22;1.85;;;19.70;83.80;;;;;;5034999;28;20048;-88
2022/08/02 07:56:12;;;;;;;4.38;1.73;;;19.90;99.90;;;;;;5055998;28;20037;-88
2022/08/02 07:58:39;;;;;;;4.97;1.80;;;20.00;91.20;;;;;;5066523;28;20118;-87
2022/08/02 08:01:05;;;;;;;3.58;1.77;;;20.20;99.90;;;;;;5055457;28;20139;-86
2022/08/02 08:03:30;;;;;;;4.70;1.75;;;20.30;91.10;;;;;;5060935;28;20098;-89
2022/08/02 08:05:56;;;;;;;3.53;1.77;;;20.50;50.80;;;;;;5041653;28;20448;-87
2022/08/02 08:08:22;;;;;;;5.20;1.80;;;20.40;1.00;;;;;;5067020;28;20037;-86
2022/08/02 08:10:48;;;;;;;3.47;1.60;;;20.40;1.00;;;;;;5056418;28;20396;-87
2022/08/02 08:13:17;;;;;;;2.53;1.48;;;20.40;1.00;;;;;;5048499;28;20126;-86
2022/08/02 08:15:43;;;;;;;2.78;1.30;;;20.40;1.00;;;;;;5058823;28;20041;-87
2022/08/02 08:18:09;;;;;;;2.88;1.35;;;20.60;1.00;;;;;;5027728;28;20045;-89
2022/08/02 08:20:35;;;;;;;5.38;1.60;;;20.50;1.00;;;;;;5058601;28;20037;-87
2022/08/02 08:23:00;;;;;;;3.20;1.13;;;20.70;1.00;;;;;;5068756;28;20126;-87
2022/08/02 08:25:26;;;;;;;2.35;1.20;;;20.90;1.00;;;;;;5029848;28;20059;-87
2022/08/02 08:27:52;;;;;;;2.28;1.23;;;21.00;1.00;;;;;;5073339;28;20033;-86
2022/08/02 08:30:21;;;;;;;4.95;1.60;;;21.00;1.00;;;;;;5068766;28;20066;-87
2022/08/02 08:32:47;;;;;;;4.38;1.20;;;21.10;1.00;;;;;;5060780;28;20324;-87
2022/08/02 08:35:13;;;;;;;3.63;1.40;;;21.10;99.90;;;;;;5029868;28;20132;-89
2022/08/02 08:37:39;;;;;;;3.40;1.52;;;21.10;99.90;;;;;;5039587;28;20124;-85
2022/08/02 08:40:06;;;;;;;2.28;1.40;;;21.10;99.90;;;;;;5034874;28;20046;-87
2022/08/02 08:42:34;;;;;;;3.30;1.30;;;21.20;99.90;;;;;;5092975;28;20542;-86
2022/08/02 08:45:01;;;;;;;4.20;1.40;;;21.40;99.90;;;;;;5067838;28;20555;-86
2022/08/02 08:47:33;;;;;;;3.65;1.35;;;21.70;99.90;;;;;;5060241;28;20089;-86
2022/08/02 08:50:15;;;;;;;4.90;1.60;;;21.70;99.90;;;;;;5036449;28;20071;-87
2022/08/02 08:52:47;;;;;;;3.25;1.30;;;22.00;99.90;;;;;;5088096;28;20040;-88
2022/08/02 08:55:14;;;;;;;3.88;1.40;;;22.00;99.90;;;;;;5082088;28;20056;-88
2022/08/02 08:57:42;;;;;;;5.03;1.50;;;22.10;99.90;;;;;;5083609;28;20368;-85
2022/08/02 09:00:11;;;;;;;4.22;1.50;;;22.20;99.90;;;;;;5067986;28;20081;-88
2022/08/02 09:02:40;;;;;;;2.58;1.10;;;22.40;99.90;;;;;;5041808;28;20064;-87
2022/08/02 09:05:09;;;;;;;2.47;1.23;;;22.70;99.90;;;;;;5062322;28;20191;-85
2022/08/02 09:07:35;;;;;;;2.58;1.35;;;22.70;99.90;;;;;;5047228;28;20434;-87
2022/08/02 09:10:03;;;;;;;2.00;1.45;;;23.00;99.90;;;;;;5054556;28;20047;-87
2022/08/02 09:12:29;;;;;;;4.07;1.40;;;23.00;99.90;;;;;;5047499;28;20037;-85
2022/08/02 09:14:55;;;;;;;3.40;1.67;;;23.20;99.90;;;;;;5065731;28;20191;-87
2022/08/02 09:17:20;;;;;;;3.42;1.23;;;23.20;99.90;;;;;;5045952;28;20041;-87
2022/08/02 09:19:46;;;;;;;3.92;1.63;;;23.20;99.90;;;;;;5058783;28;20040;-86
2022/08/02 09:22:13;;;;;;;2.35;1.33;;;23.40;99.90;;;;;;5073040;28;20024;-87
2022/08/02 09:24:45;;;;;;;4.00;1.50;;;23.50;99.90;;;;;;5033543;28;20093;-88
2022/08/02 09:27:17;;;;;;;2.25;1.40;;;23.60;99.90;;;;;;5058718;28;20040;-87
2022/08/02 09:29:51;;;;;;;2.92;1.33;;;23.80;99.90;;;;;;5054408;28;20219;-88
2022/08/02 09:32:18;;;;;;;3.25;1.38;;;24.10;99.90;;;;;;5026324;28;20563;-88
2022/08/02 09:34:52;;;;;;;3.55;1.45;;;24.10;99.90;;;;;;5071889;28;20372;-87
2022/08/02 09:37:22;;;;;;;2.15;1.42;;;24.30;99.90;;;;;;5069512;28;20040;-87
2022/08/02 09:39:47;;;;;;;3.00;1.20;;;24.30;99.90;;;;;;5052521;28;20195;-87
2022/08/02 09:42:14;;;;;;;3.53;1.48;;;24.50;99.90;;;;;;5028464;28;20725;-87
2022/08/02 09:44:51;;;;;;;3.47;1.60;;;24.60;99.90;;;;;;5061999;28;20036;-88
2022/08/02 09:47:16;;;;;;;4.57;2.33;;;24.80;99.90;;;;;;5072445;28;20056;-88
2022/08/02 09:49:49;;;;;;;3.38;1.70;;;24.50;99.90;;;;;;5052678;28;20043;-88
2022/08/02 09:52:28;;;;;;;3.53;1.65;;;24.80;99.90;;;;;;5016010;28;20314;-87
2022/08/02 09:54:54;;;;;;;2.80;1.50;;;25.00;99.90;;;;;;5075266;28;20047;-87
2022/08/02 09:57:27;;;;;;;3.88;1.95;;;24.80;99.90;;;;;;5068384;28;20080;-87
2022/08/02 09:59:57;;;;;;;2.70;1.52;;;24.70;99.90;;;;;;5072175;28;20067;-87
2022/08/02 10:02:23;;;;;;;4.85;1.83;;;24.70;99.90;;;;;;5044011;28;20037;-87
2022/08/02 10:04:49;;;;;;;4.05;1.75;;;25.10;99.90;;;;;;5028562;28;20032;-87
2022/08/02 10:07:16;;;;;;;2.85;1.70;;;25.30;99.90;;;;;;5028201;28;20523;-87
2022/08/02 10:09:44;;;;;;;3.72;1.83;;;25.40;99.90;;;;;;5042671;28;20055;-88
2022/08/02 10:12:11;;;;;;;7.75;2.35;;;25.50;99.90;;;;;;5056876;28;20474;-86
2022/08/02 10:14:38;;;;;;;3.15;1.60;;;25.50;99.90;;;;;;5037117;28;20106;-87
2022/08/02 10:17:05;;;;;;;3.15;1.60;;;25.70;99.90;;;;;;5053760;28;20064;-88
2022/08/02 10:19:30;;;;;;;2.95;1.80;;;25.80;99.90;;;;;;5072865;28;20913;-87
2022/08/02 10:22:17;;;;;;;4.53;2.03;;;26.20;99.90;;;;;;5072066;28;20085;-87
2022/08/02 10:24:44;;;;;;;3.90;2.40;;;26.10;99.90;;;;;;5045703;28;20174;-87
2022/08/02 10:27:20;;;;;;;3.72;2.15;;;26.20;99.90;;;;;;5064712;28;20464;-88
2022/08/02 10:29:48;;;;;;;4.72;2.30;;;26.00;99.90;;;;;;5048957;28;20654;-88
2022/08/02 10:32:20;;;;;;;5.57;2.55;;;26.20;99.90;;;;;;5046190;28;20033;-85
2022/08/02 10:34:52;;;;;;;4.47;2.72;;;26.00;99.90;;;;;;5062384;28;20116;-86
2022/08/02 10:37:19;;;;;;;5.18;2.83;;;26.10;99.90;;;;;;5085702;28;20567;-87
2022/08/02 10:39:45;;;;;;;3.70;2.53;;;26.40;99.90;;;;;;5059853;28;20029;-88
2022/08/02 10:42:32;;;;;;;11.25;2.75;;;26.60;99.90;;;;;;5067572;28;20437;-87
2022/08/02 10:45:09;;;;;;;4.18;2.53;;;26.90;99.90;;;;;;5050185;28;20166;-86
2022/08/02 10:47:35;;;;;;;4.03;2.78;;;27.10;99.90;;;;;;5093213;28;20125;-87
2022/08/02 10:50:02;;;;;;;3.92;2.72;;;26.80;99.90;;;;;;5035508;28;20460;-86
2022/08/02 10:52:32;;;;;;;5.10;2.45;;;27.10;99.90;;;;;;5038375;28;20356;-87
2022/08/02 10:55:10;;;;;;;4.25;2.75;;;27.10;99.90;;;;;;5034871;28;20144;-86
2022/08/02 10:57:36;;;;;;;3.70;2.70;;;27.30;99.90;;;;;;5091791;28;20053;-87
2022/08/02 11:00:20;;;;;;;4.60;2.75;;;27.70;99.90;;;;;;5092000;28;20048;-86
2022/08/02 11:02:46;;;;;;;3.20;2.10;;;28.20;99.90;;;;;;5073716;28;20607;-87
2022/08/02 11:05:30;;;;;;;2.85;2.00;;;28.10;99.90;;;;;;5065790;28;20041;-87
2022/08/02 11:07:55;;;;;;;5.38;2.22;;;28.50;99.90;;;;;;5055788;28;20037;-87
2022/08/02 11:10:38;;;;;;;3.67;2.30;;;28.50;99.90;;;;;;5049183;28;20446;-87
2022/08/02 11:13:15;;;;;;;4.25;2.22;;;28.80;99.90;;;;;;5058378;28;20051;-86
2022/08/02 11:16:05;;;;;;;8.30;2.40;;;28.50;99.90;;;;;;5036063;28;20043;-86
2022/08/02 11:18:49;;;;;;;5.72;2.60;;;27.80;99.90;;;;;;5072657;28;20530;-87
2022/08/02 11:21:23;;;;;;;3.47;2.50;;;27.60;99.90;;;;;;5068540;28;20243;-87
2022/08/02 11:23:49;;;;;;;4.87;2.23;;;27.90;99.90;;;;;;5036655;28;20029;-86
2022/08/02 11:26:30;;;;;;;3.85;2.40;;;27.70;99.90;;;;;;5058493;28;20330;-86
2022/08/02 11:29:01;;;;;;;4.25;2.80;;;28.00;99.90;;;;;;5091024;28;20052;-86
2022/08/02 11:31:27;;;;;;;6.53;2.85;;;27.70;99.90;;;;;;5049065;28;20404;-87
2022/08/02 11:33:53;;;;;;;5.10;2.92;;;27.60;99.90;;;;;;5061393;28;20029;-87
2022/08/02 11:36:19;;;;;;;4.50;2.90;;;27.50;99.90;;;;;;5033283;28;20074;-86
2022/08/02 11:38:45;;;;;;;3.90;2.40;;;27.70;99.90;;;;;;5060975;28;20127;-86
2022/08/02 11:41:21;;;;;;;5.78;2.60;;;27.60;99.90;;;;;;5078924;28;20400;-86
2022/08/02 11:43:53;;;;;;;4.50;2.65;;;27.90;99.90;;;;;;5047309;28;20033;-87
2022/08/02 11:46:22;;;;;;;3.13;2.38;;;28.30;99.90;;;;;;5030731;28;20051;-88
2022/08/02 11:48:47;;;;;;;4.55;2.60;;;28.30;99.90;;;;;;5033447;28;20143;-86
2022/08/02 11:51:16;;;;;;;4.53;2.50;;;28.30;99.90;;;;;;5060011;28;20485;-86
2022/08/02 11:53:50;;;;;;;5.68;2.85;;;28.30;99.90;;;;;;5037972;28;20437;-86
2022/08/02 11:56:28;;;;;;;4.57;2.63;;;28.30;99.90;;;;;;5081333;28;20380;-87
2022/08/02 11:59:10;;;;;;;5.75;2.70;;;28.60;99.90;;;;;;5066795;28;20036;-86
2022/08/02 12:01:38;;;;;;;5.45;2.65;;;28.30;99.90;;;;;;5037026;28;20111;-87
2022/08/02 12:04:05;;;;;;;3.28;2.45;;;28.60;99.90;;;;;;5058752;28;20043;-87
2022/08/02 12:06:32;;;;;;;5.00;2.60;;;28.70;99.90;;;;;;5065638;28;20040;-87
2022/08/02 12:09:12;;;;;;;3.35;2.22;;;28.30;99.90;;;;;;5031350;28;20436;-88
2022/08/02 12:11:38;;;;;;;3.97;2.10;;;28.40;99.90;;;;;;5074888;28;20115;-87
2022/08/02 12:14:05;;;;;;;2.80;1.88;;;28.20;99.90;;;;;;5066899;28;20464;-87
2022/08/02 12:19:26;;;;;;;7.60;1.63;;;28.20;99.90;;;;;;5074041;28;20257;-87
2022/08/02 12:22:19;;;;;;;3.88;2.00;;;28.20;99.90;;;;;;5053944;28;20080;-86
2022/08/02 12:24:51;;;;;;;2.72;2.15;;;28.10;99.90;;;;;;5047060;28;20148;-87
2022/08/02 12:27:32;;;;;;;3.47;2.33;;;27.70;99.90;;;;;;5033689;28;20131;-87
2022/08/02 12:30:17;;;;;;;3.92;2.28;;;27.90;99.90;;;;;;5047416;28;20145;-87
2022/08/02 12:32:46;;;;;;;2.50;2.10;;;28.00;99.90;;;;;;5075690;28;20412;-86
2022/08/02 12:35:13;;;;;;;5.13;2.80;;;28.10;99.90;;;;;;5032628;28;20464;-86
2022/08/02 12:37:41;;;;;;;3.78;2.40;;;27.60;99.90;;;;;;5075378;28;20044;-87
2022/08/02 12:40:24;;;;;;;5.25;4.00;;;27.80;99.90;;;;;;5046106;28;20040;-89
2022/08/02 12:42:55;;;;;;;4.80;3.80;;;27.10;99.90;;;;;;5050114;28;20064;-87
2022/08/02 12:45:22;;;;;;;4.78;3.53;;;27.20;99.90;;;;;;5059986;28;20412;-87
2022/08/02 12:47:50;;;;;;;7.65;4.88;;;27.50;99.90;;;;;;5072196;28;20103;-87
2022/08/02 12:50:30;;;;;;;5.55;4.47;;;27.10;99.90;;;;;;5034870;28;20040;-86
2022/08/02 12:53:29;;;;;;;5.70;4.45;;;26.70;1.00;;;;;;5090253;28;20087;-86
2022/08/02 12:56:00;;;;;;;6.05;4.40;;;26.70;99.90;;;;;;5055517;28;20086;-88
2022/08/02 12:58:25;;;;;;;6.65;4.85;;;26.40;99.90;;;;;;5058388;28;20435;-86
2022/08/02 13:00:57;;;;;;;9.88;5.20;;;26.00;99.90;;;;;;5031861;28;20037;-87
2022/08/02 13:03:25;;;;;;;4.85;4.30;;;25.80;99.90;;;;;;5053878;28;20552;-86